^^
Your Local Weather - Clay, NY Station Historical Data
Daily Summary for February 26, 2018 Units:  Both    English   Metric
« Previous Day
Next Day »
Daily Weekly Monthly Yearly Custom
  High: Low: Average:
Temperature: 46.2 °F /  7.9 °C 30.6 °F /  -0.8 °C 38.7 °F /  3.7 °C
Dew Point: 32.7 °F /  0.4 °C 22.4 °F /  -5.3 °C 27.6 °F /  -2.4 °C
Humidity: 75% 50% 65%
Wind Speed: 6.0mph /  9.7km/h - 2.6mph /  4.2km/h
Wind Gust: 11.0mph /  17.7km/h - -
Wind- - West
Pressure: 30.27 in /  1024.9 hPa 29.99 in /  1015.5 hPa -
Precipitation: 0.00 in /  0 mm    
Historical Graphs
 
 
Tabular Data for February 26, 2018
Time Temperature Dew Point Pressure Wind Wind Speed Wind Gust Humidity Rainfall Rate (Hourly) solar
00:16 39.5 °F /  4.2 °C 31.2 °F /  -0.4 °C 29.99in /  1015.5hPa WSW 3.0mph /  4.8km/h 6.0mph /  9.7km/h 72% 0.00in /  0mm 0 W/m2
00:22 39.4 °F /  4.1 °C 31.1 °F /  -0.5 °C 29.99in /  1015.5hPa West 2.0mph /  3.2km/h 3.0mph /  4.8km/h 72% 0.00in /  0mm 0 W/m2
00:28 39.1 °F /  3.9 °C 31.2 °F /  -0.4 °C 29.99in /  1015.5hPa WSW 1.0mph /  1.6km/h 4.0mph /  6.4km/h 73% 0.00in /  0mm 0 W/m2
00:34 39.0 °F /  3.9 °C 31.1 °F /  -0.5 °C 30.00in /  1015.8hPa WSW 2.0mph /  3.2km/h 2.0mph /  3.2km/h 73% 0.00in /  0mm 0 W/m2
00:40 38.9 °F /  3.8 °C 31.0 °F /  -0.6 °C 30.00in /  1015.8hPa SW 2.0mph /  3.2km/h 2.0mph /  3.2km/h 73% 0.00in /  0mm 0 W/m2
00:46 38.9 °F /  3.8 °C 31.0 °F /  -0.6 °C 30.00in /  1015.8hPa WSW 2.0mph /  3.2km/h 3.0mph /  4.8km/h 73% 0.00in /  0mm 0 W/m2
00:52 38.7 °F /  3.7 °C 31.1 °F /  -0.5 °C 30.00in /  1015.8hPa WSW 2.0mph /  3.2km/h 5.0mph /  8km/h 74% 0.00in /  0mm 0 W/m2
00:58 38.7 °F /  3.7 °C 31.1 °F /  -0.5 °C 30.00in /  1015.8hPa WNW 3.0mph /  4.8km/h 8.0mph /  12.9km/h 74% 0.00in /  0mm 0 W/m2
01:04 38.6 °F /  3.7 °C 31.0 °F /  -0.6 °C 30.01in /  1016.1hPa WSW 3.0mph /  4.8km/h 4.0mph /  6.4km/h 74% 0.00in /  0mm 0 W/m2
01:10 38.5 °F /  3.6 °C 30.9 °F /  -0.6 °C 30.01in /  1016.1hPa West 2.0mph /  3.2km/h 2.0mph /  3.2km/h 74% 0.00in /  0mm 0 W/m2
01:16 38.3 °F /  3.5 °C 30.7 °F /  -0.7 °C 30.01in /  1016.1hPa SW 2.0mph /  3.2km/h 4.0mph /  6.4km/h 74% 0.00in /  0mm 0 W/m2
01:22 38.4 °F /  3.6 °C 30.8 °F /  -0.7 °C 30.01in /  1016.1hPa WSW 3.0mph /  4.8km/h 4.0mph /  6.4km/h 74% 0.00in /  0mm 0 W/m2
01:36 38.3 °F /  3.5 °C 30.4 °F /  -0.9 °C 30.02in /  1016.5hPa WSW 3.0mph /  4.8km/h 9.0mph /  14.5km/h 73% 0.00in /  0mm 0 W/m2
01:42 38.3 °F /  3.5 °C 30.4 °F /  -0.9 °C 30.01in /  1016.1hPa West 3.0mph /  4.8km/h 6.0mph /  9.7km/h 73% 0.00in /  0mm 0 W/m2
01:48 38.2 °F /  3.4 °C 30.3 °F /  -0.9 °C 30.01in /  1016.1hPa SW 3.0mph /  4.8km/h 6.0mph /  9.7km/h 73% 0.00in /  0mm 0 W/m2
01:54 38.1 °F /  3.4 °C 30.2 °F /  -1 °C 30.01in /  1016.1hPa SW 3.0mph /  4.8km/h 3.0mph /  4.8km/h 73% 0.00in /  0mm 0 W/m2
02:00 38.1 °F /  3.4 °C 29.9 °F /  -1.2 °C 30.02in /  1016.5hPa WSW 3.0mph /  4.8km/h 3.0mph /  4.8km/h 72% 0.00in /  0mm 0 W/m2
02:06 38.1 °F /  3.4 °C 29.9 °F /  -1.2 °C 30.02in /  1016.5hPa WSW 3.0mph /  4.8km/h 9.0mph /  14.5km/h 72% 0.00in /  0mm 0 W/m2
02:12 38.1 °F /  3.4 °C 29.9 °F /  -1.2 °C 30.02in /  1016.5hPa SW 4.0mph /  6.4km/h 8.0mph /  12.9km/h 72% 0.00in /  0mm 0 W/m2
02:18 38.1 °F /  3.4 °C 29.9 °F /  -1.2 °C 30.02in /  1016.5hPa West 4.0mph /  6.4km/h 8.0mph /  12.9km/h 72% 0.00in /  0mm 0 W/m2
02:26 38.0 °F /  3.3 °C 29.8 °F /  -1.2 °C 30.02in /  1016.5hPa West 3.0mph /  4.8km/h 4.0mph /  6.4km/h 72% 0.00in /  0mm 0 W/m2
02:32 37.9 °F /  3.3 °C 29.7 °F /  -1.3 °C 30.02in /  1016.5hPa WSW 3.0mph /  4.8km/h 4.0mph /  6.4km/h 72% 0.00in /  0mm 0 W/m2
02:38 37.9 °F /  3.3 °C 29.7 °F /  -1.3 °C 30.02in /  1016.5hPa WSW 3.0mph /  4.8km/h 4.0mph /  6.4km/h 72% 0.00in /  0mm 0 W/m2
02:44 37.8 °F /  3.2 °C 29.6 °F /  -1.3 °C 30.03in /  1016.8hPa WSW 3.0mph /  4.8km/h 6.0mph /  9.7km/h 72% 0.00in /  0mm 0 W/m2
02:50 37.7 °F /  3.2 °C 29.5 °F /  -1.4 °C 30.03in /  1016.8hPa WSW 4.0mph /  6.4km/h 4.0mph /  6.4km/h 72% 0.00in /  0mm 0 W/m2
02:56 37.7 °F /  3.2 °C 29.5 °F /  -1.4 °C 30.03in /  1016.8hPa WSW 3.0mph /  4.8km/h 5.0mph /  8km/h 72% 0.00in /  0mm 0 W/m2
03:02 37.5 °F /  3.1 °C 29.3 °F /  -1.5 °C 30.03in /  1016.8hPa WSW 2.0mph /  3.2km/h 3.0mph /  4.8km/h 72% 0.00in /  0mm 0 W/m2
03:08 37.6 °F /  3.1 °C 29.4 °F /  -1.4 °C 30.03in /  1016.8hPa WSW 3.0mph /  4.8km/h 3.0mph /  4.8km/h 72% 0.00in /  0mm 0 W/m2
03:14 37.6 °F /  3.1 °C 29.4 °F /  -1.4 °C 30.03in /  1016.8hPa West 3.0mph /  4.8km/h 7.0mph /  11.3km/h 72% 0.00in /  0mm 0 W/m2
03:20 37.5 °F /  3.1 °C 29.3 °F /  -1.5 °C 30.03in /  1016.8hPa WSW 4.0mph /  6.4km/h 4.0mph /  6.4km/h 72% 0.00in /  0mm 0 W/m2
03:26 37.5 °F /  3.1 °C 29.3 °F /  -1.5 °C 30.03in /  1016.8hPa WSW 3.0mph /  4.8km/h 5.0mph /  8km/h 72% 0.00in /  0mm 0 W/m2
03:32 37.3 °F /  2.9 °C 29.1 °F /  -1.6 °C 30.03in /  1016.8hPa WSW 2.0mph /  3.2km/h 2.0mph /  3.2km/h 72% 0.00in /  0mm 0 W/m2
03:38 37.2 °F /  2.9 °C 29.0 °F /  -1.7 °C 30.03in /  1016.8hPa West 2.0mph /  3.2km/h 3.0mph /  4.8km/h 72% 0.00in /  0mm 0 W/m2
03:46 37.1 °F /  2.8 °C 29.2 °F /  -1.6 °C 30.03in /  1016.8hPa SW 2.0mph /  3.2km/h 3.0mph /  4.8km/h 73% 0.00in /  0mm 0 W/m2
03:52 36.9 °F /  2.7 °C 29.1 °F /  -1.6 °C 30.03in /  1016.8hPa WSW 2.0mph /  3.2km/h 2.0mph /  3.2km/h 73% 0.00in /  0mm 0 W/m2
03:58 36.9 °F /  2.7 °C 29.1 °F /  -1.6 °C 30.03in /  1016.8hPa SW 2.0mph /  3.2km/h 3.0mph /  4.8km/h 73% 0.00in /  0mm 0 W/m2
04:04 36.8 °F /  2.7 °C 29.0 °F /  -1.7 °C 30.03in /  1016.8hPa WSW 2.0mph /  3.2km/h 3.0mph /  4.8km/h 73% 0.00in /  0mm 0 W/m2
04:10 36.7 °F /  2.6 °C 28.9 °F /  -1.7 °C 30.03in /  1016.8hPa WSW 2.0mph /  3.2km/h 2.0mph /  3.2km/h 73% 0.00in /  0mm 0 W/m2
04:16 36.7 °F /  2.6 °C 28.9 °F /  -1.7 °C 30.03in /  1016.8hPa SW 2.0mph /  3.2km/h 2.0mph /  3.2km/h 73% 0.00in /  0mm 0 W/m2
04:24 36.7 °F /  2.6 °C 28.9 °F /  -1.7 °C 30.03in /  1016.8hPa West 2.0mph /  3.2km/h 5.0mph /  8km/h 73% 0.00in /  0mm 0 W/m2
04:30 36.7 °F /  2.6 °C 28.9 °F /  -1.7 °C 30.03in /  1016.8hPa West 2.0mph /  3.2km/h 3.0mph /  4.8km/h 73% 0.00in /  0mm 0 W/m2
04:36 36.5 °F /  2.5 °C 29.0 °F /  -1.7 °C 30.04in /  1017.2hPa West 2.0mph /  3.2km/h 3.0mph /  4.8km/h 74% 0.00in /  0mm 0 W/m2
04:42 36.4 °F /  2.4 °C 28.9 °F /  -1.7 °C 30.04in /  1017.2hPa WSW 2.0mph /  3.2km/h 2.0mph /  3.2km/h 74% 0.00in /  0mm 0 W/m2
04:48 36.5 °F /  2.5 °C 29.0 °F /  -1.7 °C 30.05in /  1017.5hPa SW 2.0mph /  3.2km/h 4.0mph /  6.4km/h 74% 0.00in /  0mm 0 W/m2
04:54 36.6 °F /  2.6 °C 29.1 °F /  -1.6 °C 30.05in /  1017.5hPa WSW 2.0mph /  3.2km/h 4.0mph /  6.4km/h 74% 0.00in /  0mm 0 W/m2
05:00 36.5 °F /  2.5 °C 28.7 °F /  -1.8 °C 30.05in /  1017.5hPa WSW 1.0mph /  1.6km/h 3.0mph /  4.8km/h 73% 0.00in /  0mm 0 W/m2
05:06 36.3 °F /  2.4 °C 28.8 °F /  -1.8 °C 30.05in /  1017.5hPa West 1.0mph /  1.6km/h 3.0mph /  4.8km/h 74% 0.00in /  0mm 0 W/m2
05:12 36.2 °F /  2.3 °C 28.7 °F /  -1.8 °C 30.05in /  1017.5hPa WSW 2.0mph /  3.2km/h 3.0mph /  4.8km/h 74% 0.00in /  0mm 0 W/m2
05:18 36.2 °F /  2.3 °C 28.4 °F /  -2 °C 30.05in /  1017.5hPa WSW 2.0mph /  3.2km/h 3.0mph /  4.8km/h 73% 0.00in /  0mm 0 W/m2
05:24 36.2 °F /  2.3 °C 28.4 °F /  -2 °C 30.05in /  1017.5hPa WSW 1.0mph /  1.6km/h 3.0mph /  4.8km/h 73% 0.00in /  0mm 0 W/m2
05:30 36.2 °F /  2.3 °C 28.4 °F /  -2 °C 30.05in /  1017.5hPa WSW 1.0mph /  1.6km/h 2.0mph /  3.2km/h 73% 0.00in /  0mm 0 W/m2
05:36 36.2 °F /  2.3 °C 28.4 °F /  -2 °C 30.06in /  1017.8hPa WSW 2.0mph /  3.2km/h 3.0mph /  4.8km/h 73% 0.00in /  0mm 0 W/m2
05:42 36.2 °F /  2.3 °C 28.4 °F /  -2 °C 30.06in /  1017.8hPa WSW 2.0mph /  3.2km/h 2.0mph /  3.2km/h 73% 0.00in /  0mm 0 W/m2
05:48 36.0 °F /  2.2 °C 28.2 °F /  -2.1 °C 30.06in /  1017.8hPa WSW 2.0mph /  3.2km/h 2.0mph /  3.2km/h 73% 0.00in /  0mm 0 W/m2
05:54 35.9 °F /  2.2 °C 28.1 °F /  -2.2 °C 30.06in /  1017.8hPa WSW 1.0mph /  1.6km/h 2.0mph /  3.2km/h 73% 0.00in /  0mm 0 W/m2
06:00 35.9 °F /  2.2 °C 28.1 °F /  -2.2 °C 30.06in /  1017.8hPa WSW 1.0mph /  1.6km/h 1.0mph /  1.6km/h 73% 0.00in /  0mm 0 W/m2
06:06 35.9 °F /  2.2 °C 28.1 °F /  -2.2 °C 30.06in /  1017.8hPa WSW 2.0mph /  3.2km/h 2.0mph /  3.2km/h 73% 0.00in /  0mm 0 W/m2
06:12 35.9 °F /  2.2 °C 28.1 °F /  -2.2 °C 30.06in /  1017.8hPa WSW 2.0mph /  3.2km/h 2.0mph /  3.2km/h 73% 0.00in /  0mm 0 W/m2
06:18 35.8 °F /  2.1 °C 28.0 °F /  -2.2 °C 30.06in /  1017.8hPa WSW 1.0mph /  1.6km/h 2.0mph /  3.2km/h 73% 0.00in /  0mm 0 W/m2
06:24 35.8 °F /  2.1 °C 28.0 °F /  -2.2 °C 30.06in /  1017.8hPa WSW 1.0mph /  1.6km/h 5.0mph /  8km/h 73% 0.00in /  0mm 0 W/m2
06:30 35.9 °F /  2.2 °C 27.7 °F /  -2.4 °C 30.07in /  1018.2hPa WSW 2.0mph /  3.2km/h 2.0mph /  3.2km/h 72% 0.00in /  0mm 0 W/m2
06:36 35.9 °F /  2.2 °C 27.7 °F /  -2.4 °C 30.08in /  1018.5hPa WSW 2.0mph /  3.2km/h 5.0mph /  8km/h 72% 0.00in /  0mm 0 W/m2
06:42 35.8 °F /  2.1 °C 27.7 °F /  -2.4 °C 30.08in /  1018.5hPa WSW 2.0mph /  3.2km/h 2.0mph /  3.2km/h 72% 0.00in /  0mm 0 W/m2
06:48 35.7 °F /  2.1 °C 27.6 °F /  -2.4 °C 30.08in /  1018.5hPa WSW 1.0mph /  1.6km/h 2.0mph /  3.2km/h 72% 0.00in /  0mm 0 W/m2
06:54 35.7 °F /  2.1 °C 27.6 °F /  -2.4 °C 30.08in /  1018.5hPa WSW 1.0mph /  1.6km/h 2.0mph /  3.2km/h 72% 0.00in /  0mm 5 W/m2
07:00 35.7 °F /  2.1 °C 27.6 °F /  -2.4 °C 30.08in /  1018.5hPa WSW 2.0mph /  3.2km/h 3.0mph /  4.8km/h 72% 0.00in /  0mm 11 W/m2
07:06 35.7 °F /  2.1 °C 27.2 °F /  -2.7 °C 30.08in /  1018.5hPa West 2.0mph /  3.2km/h 3.0mph /  4.8km/h 71% 0.00in /  0mm 16 W/m2
07:12 35.7 °F /  2.1 °C 27.2 °F /  -2.7 °C 30.08in /  1018.5hPa WSW 2.0mph /  3.2km/h 2.0mph /  3.2km/h 71% 0.00in /  0mm 21 W/m2
07:18 35.7 °F /  2.1 °C 27.2 °F /  -2.7 °C 30.09in /  1018.8hPa WSW 2.0mph /  3.2km/h 3.0mph /  4.8km/h 71% 0.00in /  0mm 25 W/m2
07:24 35.7 °F /  2.1 °C 27.2 °F /  -2.7 °C 30.09in /  1018.8hPa WSW 1.0mph /  1.6km/h 2.0mph /  3.2km/h 71% 0.00in /  0mm 28 W/m2
07:30 35.9 °F /  2.2 °C 27.4 °F /  -2.6 °C 30.09in /  1018.8hPa WSW 2.0mph /  3.2km/h 2.0mph /  3.2km/h 71% 0.00in /  0mm 23 W/m2
07:36 36.0 °F /  2.2 °C 27.5 °F /  -2.5 °C 30.10in /  1019.2hPa WSW 2.0mph /  3.2km/h 2.0mph /  3.2km/h 71% 0.00in /  0mm 30 W/m2
07:42 36.2 °F /  2.3 °C 27.4 °F /  -2.6 °C 30.10in /  1019.2hPa WSW 2.0mph /  3.2km/h 2.0mph /  3.2km/h 70% 0.00in /  0mm 51 W/m2
07:48 36.4 °F /  2.4 °C 27.5 °F /  -2.5 °C 30.09in /  1018.8hPa WSW 2.0mph /  3.2km/h 2.0mph /  3.2km/h 70% 0.00in /  0mm 33 W/m2
07:54 36.7 °F /  2.6 °C 27.5 °F /  -2.5 °C 30.10in /  1019.2hPa West 2.0mph /  3.2km/h 3.0mph /  4.8km/h 69% 0.00in /  0mm 46 W/m2
08:00 37.0 °F /  2.8 °C 27.8 °F /  -2.3 °C 30.10in /  1019.2hPa West 2.0mph /  3.2km/h 2.0mph /  3.2km/h 69% 0.00in /  0mm 107 W/m2
08:06 37.4 °F /  3 °C 27.8 °F /  -2.3 °C 30.10in /  1019.2hPa WSW 2.0mph /  3.2km/h 3.0mph /  4.8km/h 68% 0.00in /  0mm 114 W/m2
08:12 38.0 °F /  3.3 °C 28.0 °F /  -2.2 °C 30.11in /  1019.5hPa SW 2.0mph /  3.2km/h 3.0mph /  4.8km/h 67% 0.00in /  0mm 144 W/m2
08:18 38.4 °F /  3.6 °C 28.0 °F /  -2.2 °C 30.11in /  1019.5hPa WSW 3.0mph /  4.8km/h 3.0mph /  4.8km/h 66% 0.00in /  0mm 132 W/m2
08:24 38.6 °F /  3.7 °C 28.2 °F /  -2.1 °C 30.11in /  1019.5hPa WNW 3.0mph /  4.8km/h 4.0mph /  6.4km/h 66% 0.00in /  0mm 171 W/m2
08:30 38.8 °F /  3.8 °C 28.4 °F /  -2 °C 30.11in /  1019.5hPa West 4.0mph /  6.4km/h 10.0mph /  16.1km/h 66% 0.00in /  0mm 165 W/m2
08:36 39.1 °F /  3.9 °C 28.7 °F /  -1.8 °C 30.11in /  1019.5hPa WSW 4.0mph /  6.4km/h 10.0mph /  16.1km/h 66% 0.00in /  0mm 297 W/m2
08:42 39.4 °F /  4.1 °C 29.0 °F /  -1.7 °C 30.11in /  1019.5hPa NW 3.0mph /  4.8km/h 4.0mph /  6.4km/h 66% 0.00in /  0mm 269 W/m2
08:48 39.8 °F /  4.3 °C 29.0 °F /  -1.7 °C 30.11in /  1019.5hPa West 3.0mph /  4.8km/h 5.0mph /  8km/h 65% 0.00in /  0mm 216 W/m2
08:54 40.0 °F /  4.4 °C 29.2 °F /  -1.6 °C 30.11in /  1019.5hPa WNW 3.0mph /  4.8km/h 5.0mph /  8km/h 65% 0.00in /  0mm 345 W/m2
09:00 40.3 °F /  4.6 °C 29.1 °F /  -1.6 °C 30.11in /  1019.5hPa WNW 3.0mph /  4.8km/h 5.0mph /  8km/h 64% 0.00in /  0mm 211 W/m2
09:06 40.3 °F /  4.6 °C 28.7 °F /  -1.8 °C 30.11in /  1019.5hPa West 4.0mph /  6.4km/h 5.0mph /  8km/h 63% 0.00in /  0mm 308 W/m2
09:12 40.6 °F /  4.8 °C 29.0 °F /  -1.7 °C 30.11in /  1019.5hPa West 5.0mph /  8km/h 6.0mph /  9.7km/h 63% 0.00in /  0mm 292 W/m2
09:18 40.8 °F /  4.9 °C 28.8 °F /  -1.8 °C 30.11in /  1019.5hPa West 5.0mph /  8km/h 6.0mph /  9.7km/h 62% 0.00in /  0mm 429 W/m2
09:24 41.4 °F /  5.2 °C 29.7 °F /  -1.3 °C 30.11in /  1019.5hPa West 5.0mph /  8km/h 5.0mph /  8km/h 63% 0.00in /  0mm 443 W/m2
09:30 41.8 °F /  5.4 °C 29.3 °F /  -1.5 °C 30.11in /  1019.5hPa WSW 4.0mph /  6.4km/h 9.0mph /  14.5km/h 61% 0.00in /  0mm 452 W/m2
09:36 41.4 °F /  5.2 °C 28.9 °F /  -1.7 °C 30.11in /  1019.5hPa WSW 4.0mph /  6.4km/h 10.0mph /  16.1km/h 61% 0.00in /  0mm 469 W/m2
09:42 41.7 °F /  5.4 °C 30.0 °F /  -1.1 °C 30.12in /  1019.9hPa West 5.0mph /  8km/h 5.0mph /  8km/h 63% 0.00in /  0mm 485 W/m2
09:48 41.8 °F /  5.4 °C 29.7 °F /  -1.3 °C 30.12in /  1019.9hPa WSW 4.0mph /  6.4km/h 6.0mph /  9.7km/h 62% 0.00in /  0mm 504 W/m2
09:54 42.3 °F /  5.7 °C 30.2 °F /  -1 °C 30.12in /  1019.9hPa West 4.0mph /  6.4km/h 7.0mph /  11.3km/h 62% 0.00in /  0mm 545 W/m2
10:00 42.4 °F /  5.8 °C 29.9 °F /  -1.2 °C 30.12in /  1019.9hPa SW 5.0mph /  8km/h 7.0mph /  11.3km/h 61% 0.00in /  0mm 541 W/m2
10:06 42.4 °F /  5.8 °C 29.9 °F /  -1.2 °C 30.12in /  1019.9hPa WNW 6.0mph /  9.7km/h 7.0mph /  11.3km/h 61% 0.00in /  0mm 503 W/m2
10:12 42.9 °F /  6.1 °C 30.0 °F /  -1.1 °C 30.12in /  1019.9hPa West 5.0mph /  8km/h 5.0mph /  8km/h 60% 0.00in /  0mm 571 W/m2
10:18 42.4 °F /  5.8 °C 29.9 °F /  -1.2 °C 30.12in /  1019.9hPa West 5.0mph /  8km/h 9.0mph /  14.5km/h 61% 0.00in /  0mm 575 W/m2
10:24 42.5 °F /  5.8 °C 29.2 °F /  -1.6 °C 30.12in /  1019.9hPa West 5.0mph /  8km/h 6.0mph /  9.7km/h 59% 0.00in /  0mm 487 W/m2
10:30 42.8 °F /  6 °C 29.0 °F /  -1.7 °C 30.12in /  1019.9hPa WNW 5.0mph /  8km/h 5.0mph /  8km/h 58% 0.00in /  0mm 599 W/m2
10:36 43.0 °F /  6.1 °C 29.2 °F /  -1.6 °C 30.12in /  1019.9hPa NW 5.0mph /  8km/h 7.0mph /  11.3km/h 58% 0.00in /  0mm 598 W/m2
10:42 42.9 °F /  6.1 °C 29.5 °F /  -1.4 °C 30.12in /  1019.9hPa WSW 5.0mph /  8km/h 9.0mph /  14.5km/h 59% 0.00in /  0mm 612 W/m2
10:48 43.3 °F /  6.3 °C 29.5 °F /  -1.4 °C 30.12in /  1019.9hPa WNW 5.0mph /  8km/h 9.0mph /  14.5km/h 58% 0.00in /  0mm 633 W/m2
10:54 43.6 °F /  6.4 °C 30.2 °F /  -1 °C 30.12in /  1019.9hPa WNW 5.0mph /  8km/h 5.0mph /  8km/h 59% 0.00in /  0mm 679 W/m2
11:00 44.3 °F /  6.8 °C 31.3 °F /  -0.4 °C 30.12in /  1019.9hPa West 5.0mph /  8km/h 8.0mph /  12.9km/h 60% 0.00in /  0mm 719 W/m2
11:06 43.3 °F /  6.3 °C 29.5 °F /  -1.4 °C 30.12in /  1019.9hPa NW 5.0mph /  8km/h 11.0mph /  17.7km/h 58% 0.00in /  0mm 708 W/m2
11:12 43.1 °F /  6.2 °C 29.7 °F /  -1.3 °C 30.12in /  1019.9hPa NW 5.0mph /  8km/h 10.0mph /  16.1km/h 59% 0.00in /  0mm 98 W/m2
11:18 43.8 °F /  6.6 °C 29.1 °F /  -1.6 °C 30.13in /  1020.2hPa WSW 5.0mph /  8km/h 10.0mph /  16.1km/h 56% 0.00in /  0mm 802 W/m2
11:24 44.8 °F /  7.1 °C 30.9 °F /  -0.6 °C 30.12in /  1019.9hPa West 4.0mph /  6.4km/h 6.0mph /  9.7km/h 58% 0.00in /  0mm 689 W/m2
11:30 44.5 °F /  6.9 °C 30.2 °F /  -1 °C 30.12in /  1019.9hPa NW 5.0mph /  8km/h 5.0mph /  8km/h 57% 0.00in /  0mm 805 W/m2
11:36 44.9 °F /  7.2 °C 30.6 °F /  -0.8 °C 30.12in /  1019.9hPa SW 5.0mph /  8km/h 9.0mph /  14.5km/h 57% 0.00in /  0mm 842 W/m2
11:42 45.5 °F /  7.5 °C 29.8 °F /  -1.2 °C 30.12in /  1019.9hPa West 4.0mph /  6.4km/h 4.0mph /  6.4km/h 54% 0.00in /  0mm 874 W/m2
11:48 45.2 °F /  7.3 °C 30.0 °F /  -1.1 °C 30.13in /  1020.2hPa WNW 5.0mph /  8km/h 9.0mph /  14.5km/h 55% 0.00in /  0mm 853 W/m2
11:54 44.8 °F /  7.1 °C 32.6 °F /  0.3 °C 30.12in /  1019.9hPa NNW 4.0mph /  6.4km/h 5.0mph /  8km/h 62% 0.00in /  0mm 278 W/m2
12:00 43.8 °F /  6.6 °C 30.8 °F /  -0.7 °C 30.13in /  1020.2hPa NNW 3.0mph /  4.8km/h 3.0mph /  4.8km/h 60% 0.00in /  0mm 772 W/m2
12:06 44.8 °F /  7.1 °C 30.5 °F /  -0.8 °C 30.13in /  1020.2hPa NW 3.0mph /  4.8km/h 5.0mph /  8km/h 57% 0.00in /  0mm 169 W/m2
12:12 45.2 °F /  7.3 °C 31.7 °F /  -0.2 °C 30.13in /  1020.2hPa NW 3.0mph /  4.8km/h 3.0mph /  4.8km/h 59% 0.00in /  0mm 705 W/m2
12:18 44.9 °F /  7.2 °C 31.0 °F /  -0.6 °C 30.13in /  1020.2hPa West 4.0mph /  6.4km/h 6.0mph /  9.7km/h 58% 0.00in /  0mm 689 W/m2
12:24 45.1 °F /  7.3 °C 30.3 °F /  -0.9 °C 30.13in /  1020.2hPa NW 4.0mph /  6.4km/h 6.0mph /  9.7km/h 56% 0.00in /  0mm 689 W/m2
12:30 45.1 °F /  7.3 °C 31.2 °F /  -0.4 °C 30.13in /  1020.2hPa NW 5.0mph /  8km/h 6.0mph /  9.7km/h 58% 0.00in /  0mm 701 W/m2
12:36 45.3 °F /  7.4 °C 30.5 °F /  -0.8 °C 30.13in /  1020.2hPa WNW 5.0mph /  8km/h 6.0mph /  9.7km/h 56% 0.00in /  0mm 214 W/m2
12:42 44.0 °F /  6.7 °C 30.6 °F /  -0.8 °C 30.13in /  1020.2hPa NNW 5.0mph /  8km/h 10.0mph /  16.1km/h 59% 0.00in /  0mm 232 W/m2
12:48 44.1 °F /  6.7 °C 31.9 °F /  -0.1 °C 30.13in /  1020.2hPa West 6.0mph /  9.7km/h 10.0mph /  16.1km/h 62% 0.00in /  0mm 733 W/m2
12:54 44.9 °F /  7.2 °C 31.4 °F /  -0.3 °C 30.13in /  1020.2hPa NW 5.0mph /  8km/h 8.0mph /  12.9km/h 59% 0.00in /  0mm 686 W/m2
13:00 45.3 °F /  7.4 °C 31.8 °F /  -0.1 °C 30.13in /  1020.2hPa WNW 5.0mph /  8km/h 5.0mph /  8km/h 59% 0.00in /  0mm 700 W/m2
13:06 45.0 °F /  7.2 °C 31.1 °F /  -0.5 °C 30.13in /  1020.2hPa WNW 4.0mph /  6.4km/h 5.0mph /  8km/h 58% 0.00in /  0mm 652 W/m2
13:12 45.4 °F /  7.4 °C 32.7 °F /  0.4 °C 30.13in /  1020.2hPa North 4.0mph /  6.4km/h 6.0mph /  9.7km/h 61% 0.00in /  0mm 645 W/m2
13:18 45.8 °F /  7.7 °C 32.3 °F /  0.2 °C 30.13in /  1020.2hPa NW 4.0mph /  6.4km/h 6.0mph /  9.7km/h 59% 0.00in /  0mm 640 W/m2
13:24 45.4 °F /  7.4 °C 31.5 °F /  -0.3 °C 30.13in /  1020.2hPa WNW 4.0mph /  6.4km/h 9.0mph /  14.5km/h 58% 0.00in /  0mm 635 W/m2
13:30 45.2 °F /  7.3 °C 31.3 °F /  -0.4 °C 30.13in /  1020.2hPa WNW 5.0mph /  8km/h 5.0mph /  8km/h 58% 0.00in /  0mm 622 W/m2
13:36 45.0 °F /  7.2 °C 30.2 °F /  -1 °C 30.13in /  1020.2hPa WNW 5.0mph /  8km/h 8.0mph /  12.9km/h 56% 0.00in /  0mm 615 W/m2
13:42 45.8 °F /  7.7 °C 30.5 °F /  -0.8 °C 30.13in /  1020.2hPa WNW 4.0mph /  6.4km/h 4.0mph /  6.4km/h 55% 0.00in /  0mm 612 W/m2
13:48 46.2 °F /  7.9 °C 31.4 °F /  -0.3 °C 30.14in /  1020.5hPa NNW 3.0mph /  4.8km/h 5.0mph /  8km/h 56% 0.00in /  0mm 605 W/m2
13:54 45.1 °F /  7.3 °C 30.3 °F /  -0.9 °C 30.14in /  1020.5hPa WNW 4.0mph /  6.4km/h 7.0mph /  11.3km/h 56% 0.00in /  0mm 598 W/m2
14:00 45.3 °F /  7.4 °C 30.5 °F /  -0.8 °C 30.14in /  1020.5hPa NW 5.0mph /  8km/h 5.0mph /  8km/h 56% 0.00in /  0mm 587 W/m2
14:06 45.9 °F /  7.7 °C 31.1 °F /  -0.5 °C 30.14in /  1020.5hPa NW 4.0mph /  6.4km/h 5.0mph /  8km/h 56% 0.00in /  0mm 577 W/m2
14:12 45.8 °F /  7.7 °C 30.5 °F /  -0.8 °C 30.14in /  1020.5hPa WNW 3.0mph /  4.8km/h 3.0mph /  4.8km/h 55% 0.00in /  0mm 566 W/m2
14:18 44.8 °F /  7.1 °C 30.5 °F /  -0.8 °C 30.14in /  1020.5hPa NW 5.0mph /  8km/h 11.0mph /  17.7km/h 57% 0.00in /  0mm 554 W/m2
14:24 44.9 °F /  7.2 °C 30.1 °F /  -1.1 °C 30.14in /  1020.5hPa WNW 6.0mph /  9.7km/h 8.0mph /  12.9km/h 56% 0.00in /  0mm 541 W/m2
14:30 44.9 °F /  7.2 °C 29.7 °F /  -1.3 °C 30.14in /  1020.5hPa NNW 5.0mph /  8km/h 5.0mph /  8km/h 55% 0.00in /  0mm 534 W/m2
14:36 45.5 °F /  7.5 °C 30.7 °F /  -0.7 °C 30.14in /  1020.5hPa NW 4.0mph /  6.4km/h 6.0mph /  9.7km/h 56% 0.00in /  0mm 522 W/m2
14:42 45.2 °F /  7.3 °C 29.5 °F /  -1.4 °C 30.14in /  1020.5hPa NW 4.0mph /  6.4km/h 4.0mph /  6.4km/h 54% 0.00in /  0mm 508 W/m2
14:48 45.1 °F /  7.3 °C 30.3 °F /  -0.9 °C 30.14in /  1020.5hPa NW 5.0mph /  8km/h 7.0mph /  11.3km/h 56% 0.00in /  0mm 494 W/m2
14:54 44.9 °F /  7.2 °C 29.2 °F /  -1.6 °C 30.14in /  1020.5hPa WNW 5.0mph /  8km/h 5.0mph /  8km/h 54% 0.00in /  0mm 485 W/m2
15:00 44.6 °F /  7 °C 29.0 °F /  -1.7 °C 30.14in /  1020.5hPa WNW 5.0mph /  8km/h 5.0mph /  8km/h 54% 0.00in /  0mm 473 W/m2
15:06 44.9 °F /  7.2 °C 27.8 °F /  -2.3 °C 30.14in /  1020.5hPa NW 5.0mph /  8km/h 7.0mph /  11.3km/h 51% 0.00in /  0mm 459 W/m2
15:14 44.4 °F /  6.9 °C 27.4 °F /  -2.6 °C 30.14in /  1020.5hPa NNW 5.0mph /  8km/h 10.0mph /  16.1km/h 51% 0.00in /  0mm 441 W/m2
15:20 44.3 °F /  6.8 °C 28.2 °F /  -2.1 °C 30.15in /  1020.9hPa West 5.0mph /  8km/h 5.0mph /  8km/h 53% 0.00in /  0mm 422 W/m2
15:26 44.8 °F /  7.1 °C 28.2 °F /  -2.1 °C 30.15in /  1020.9hPa NW 4.0mph /  6.4km/h 6.0mph /  9.7km/h 52% 0.00in /  0mm 410 W/m2
15:32 44.4 °F /  6.9 °C 26.9 °F /  -2.8 °C 30.15in /  1020.9hPa WNW 4.0mph /  6.4km/h 5.0mph /  8km/h 50% 0.00in /  0mm 394 W/m2
15:38 43.5 °F /  6.4 °C 26.6 °F /  -3 °C 30.15in /  1020.9hPa NNE 5.0mph /  8km/h 11.0mph /  17.7km/h 51% 0.00in /  0mm 378 W/m2
15:44 43.2 °F /  6.2 °C 26.7 °F /  -2.9 °C 30.15in /  1020.9hPa NNW 6.0mph /  9.7km/h 9.0mph /  14.5km/h 52% 0.00in /  0mm 364 W/m2
15:56 42.9 °F /  6.1 °C 26.5 °F /  -3.1 °C 30.16in /  1021.2hPa NW 5.0mph /  8km/h 11.0mph /  17.7km/h 52% 0.00in /  0mm 329 W/m2
16:02 42.9 °F /  6.1 °C 26.5 °F /  -3.1 °C 30.16in /  1021.2hPa West 5.0mph /  8km/h 7.0mph /  11.3km/h 52% 0.00in /  0mm 309 W/m2
16:08 42.7 °F /  5.9 °C 25.8 °F /  -3.4 °C 30.16in /  1021.2hPa WNW 5.0mph /  8km/h 7.0mph /  11.3km/h 51% 0.00in /  0mm 294 W/m2
16:14 42.6 °F /  5.9 °C 26.2 °F /  -3.2 °C 30.16in /  1021.2hPa West 5.0mph /  8km/h 5.0mph /  8km/h 52% 0.00in /  0mm 274 W/m2
16:26 42.4 °F /  5.8 °C 25.5 °F /  -3.6 °C 30.16in /  1021.2hPa WNW 4.0mph /  6.4km/h 5.0mph /  8km/h 51% 0.00in /  0mm 243 W/m2
16:32 41.9 °F /  5.5 °C 25.1 °F /  -3.8 °C 30.16in /  1021.2hPa WNW 5.0mph /  8km/h 8.0mph /  12.9km/h 51% 0.00in /  0mm 221 W/m2
16:38 41.5 °F /  5.3 °C 25.2 °F /  -3.8 °C 30.16in /  1021.2hPa NW 5.0mph /  8km/h 8.0mph /  12.9km/h 52% 0.00in /  0mm 32 W/m2
16:44 41.3 °F /  5.2 °C 24.5 °F /  -4.2 °C 30.16in /  1021.2hPa NW 5.0mph /  8km/h 7.0mph /  11.3km/h 51% 0.00in /  0mm 30 W/m2
16:50 41.1 °F /  5.1 °C 24.8 °F /  -4 °C 30.17in /  1021.6hPa WNW 5.0mph /  8km/h 5.0mph /  8km/h 52% 0.00in /  0mm 28 W/m2
16:56 40.9 °F /  4.9 °C 24.6 °F /  -4.1 °C 30.17in /  1021.6hPa WNW 4.0mph /  6.4km/h 6.0mph /  9.7km/h 52% 0.00in /  0mm 26 W/m2
17:02 40.7 °F /  4.8 °C 24.4 °F /  -4.2 °C 30.17in /  1021.6hPa NW 4.0mph /  6.4km/h 4.0mph /  6.4km/h 52% 0.00in /  0mm 25 W/m2
17:08 40.6 °F /  4.8 °C 24.8 °F /  -4 °C 30.17in /  1021.6hPa WNW 4.0mph /  6.4km/h 4.0mph /  6.4km/h 53% 0.00in /  0mm 23 W/m2
17:14 40.4 °F /  4.7 °C 24.6 °F /  -4.1 °C 30.17in /  1021.6hPa WNW 3.0mph /  4.8km/h 6.0mph /  9.7km/h 53% 0.00in /  0mm 21 W/m2
17:20 40.2 °F /  4.6 °C 25.3 °F /  -3.7 °C 30.17in /  1021.6hPa NW 3.0mph /  4.8km/h 3.0mph /  4.8km/h 55% 0.00in /  0mm 19 W/m2
17:26 39.9 °F /  4.4 °C 25.0 °F /  -3.9 °C 30.18in /  1021.9hPa WNW 3.0mph /  4.8km/h 5.0mph /  8km/h 55% 0.00in /  0mm 16 W/m2
17:32 39.7 °F /  4.3 °C 24.8 °F /  -4 °C 30.18in /  1021.9hPa WNW 3.0mph /  4.8km/h 3.0mph /  4.8km/h 55% 0.00in /  0mm 14 W/m2
17:38 39.4 °F /  4.1 °C 25.0 °F /  -3.9 °C 30.18in /  1021.9hPa NW 2.0mph /  3.2km/h 4.0mph /  6.4km/h 56% 0.00in /  0mm 11 W/m2
17:44 39.2 °F /  4 °C 24.8 °F /  -4 °C 30.18in /  1021.9hPa West 2.0mph /  3.2km/h 5.0mph /  8km/h 56% 0.00in /  0mm 7 W/m2
17:50 38.9 °F /  3.8 °C 24.5 °F /  -4.2 °C 30.19in /  1022.2hPa West 1.0mph /  1.6km/h 1.0mph /  1.6km/h 56% 0.00in /  0mm 5 W/m2
17:56 38.6 °F /  3.7 °C 24.2 °F /  -4.3 °C 30.19in /  1022.2hPa West 1.0mph /  1.6km/h 2.0mph /  3.2km/h 56% 0.00in /  0mm 0 W/m2
18:02 38.4 °F /  3.6 °C 24.5 °F /  -4.2 °C 30.19in /  1022.2hPa West 1.0mph /  1.6km/h 1.0mph /  1.6km/h 57% 0.00in /  0mm 0 W/m2
18:08 38.2 °F /  3.4 °C 24.3 °F /  -4.3 °C 30.19in /  1022.2hPa Calm   1.0mph /  1.6km/h 57% 0.00in /  0mm 0 W/m2
18:14 38.1 °F /  3.4 °C 24.6 °F /  -4.1 °C 30.19in /  1022.2hPa West 1.0mph /  1.6km/h 2.0mph /  3.2km/h 58% 0.00in /  0mm 0 W/m2
18:20 37.9 °F /  3.3 °C 24.4 °F /  -4.2 °C 30.19in /  1022.2hPa West 1.0mph /  1.6km/h 1.0mph /  1.6km/h 58% 0.00in /  0mm 0 W/m2
18:26 37.8 °F /  3.2 °C 24.3 °F /  -4.3 °C 30.19in /  1022.2hPa West 1.0mph /  1.6km/h 2.0mph /  3.2km/h 58% 0.00in /  0mm 0 W/m2
18:32 37.7 °F /  3.2 °C 24.2 °F /  -4.3 °C 30.20in /  1022.6hPa Calm   2.0mph /  3.2km/h 58% 0.00in /  0mm 0 W/m2
18:38 37.5 °F /  3.1 °C 24.1 °F /  -4.4 °C 30.20in /  1022.6hPa Calm   2.0mph /  3.2km/h 58% 0.00in /  0mm 0 W/m2
18:44 37.4 °F /  3 °C 24.4 °F /  -4.2 °C 30.20in /  1022.6hPa West 1.0mph /  1.6km/h 2.0mph /  3.2km/h 59% 0.00in /  0mm 0 W/m2
18:50 37.3 °F /  2.9 °C 24.3 °F /  -4.3 °C 30.20in /  1022.6hPa Calm     59% 0.00in /  0mm 0 W/m2
18:56 37.1 °F /  2.8 °C 24.1 °F /  -4.4 °C 30.20in /  1022.6hPa Calm     59% 0.00in /  0mm 0 W/m2
19:02 36.8 °F /  2.7 °C 24.2 °F /  -4.3 °C 30.20in /  1022.6hPa Calm     60% 0.00in /  0mm 0 W/m2
19:08 36.5 °F /  2.5 °C 24.3 °F /  -4.3 °C 30.20in /  1022.6hPa Calm     61% 0.00in /  0mm 0 W/m2
19:16 36.1 °F /  2.3 °C 23.9 °F /  -4.5 °C 30.20in /  1022.6hPa Calm   1.0mph /  1.6km/h 61% 0.00in /  0mm 0 W/m2
19:26 35.5 °F /  1.9 °C 24.1 °F /  -4.4 °C 30.21in /  1022.9hPa Calm     63% 0.00in /  0mm 0 W/m2
19:32 35.3 °F /  1.8 °C 24.0 °F /  -4.4 °C 30.21in /  1022.9hPa Calm     63% 0.00in /  0mm 0 W/m2
19:38 35.1 °F /  1.7 °C 24.1 °F /  -4.4 °C 30.21in /  1022.9hPa Calm     64% 0.00in /  0mm 0 W/m2
19:44 35.0 °F /  1.7 °C 24.4 °F /  -4.2 °C 30.21in /  1022.9hPa Calm     65% 0.00in /  0mm 0 W/m2
19:50 34.8 °F /  1.6 °C 24.2 °F /  -4.3 °C 30.21in /  1022.9hPa Calm     65% 0.00in /  0mm 0 W/m2
19:56 34.6 °F /  1.4 °C 24.0 °F /  -4.4 °C 30.21in /  1022.9hPa Calm   2.0mph /  3.2km/h 65% 0.00in /  0mm 0 W/m2
20:02 34.3 °F /  1.3 °C 24.1 °F /  -4.4 °C 30.21in /  1022.9hPa Calm     66% 0.00in /  0mm 0 W/m2
20:08 34.1 °F /  1.2 °C 23.9 °F /  -4.5 °C 30.22in /  1023.2hPa Calm     66% 0.00in /  0mm 0 W/m2
20:14 33.9 °F /  1.1 °C 24.1 °F /  -4.4 °C 30.21in /  1022.9hPa Calm     67% 0.00in /  0mm 0 W/m2
20:20 33.6 °F /  0.9 °C 23.8 °F /  -4.6 °C 30.21in /  1022.9hPa Calm     67% 0.00in /  0mm 0 W/m2
20:26 33.2 °F /  0.7 °C 23.8 °F /  -4.6 °C 30.22in /  1023.2hPa Calm     68% 0.00in /  0mm 0 W/m2
20:32 33.0 °F /  0.6 °C 23.6 °F /  -4.7 °C 30.22in /  1023.2hPa Calm     68% 0.00in /  0mm 0 W/m2
20:38 32.7 °F /  0.4 °C 23.6 °F /  -4.7 °C 30.22in /  1023.2hPa Calm     69% 0.00in /  0mm 0 W/m2
20:44 32.7 °F /  0.4 °C 24.0 °F /  -4.4 °C 30.22in /  1023.2hPa Calm     70% 0.00in /  0mm 0 W/m2
20:50 32.6 °F /  0.3 °C 23.9 °F /  -4.5 °C 30.22in /  1023.2hPa Calm     70% 0.00in /  0mm 0 W/m2
20:56 32.4 °F /  0.2 °C 23.7 °F /  -4.6 °C 30.22in /  1023.2hPa Calm     70% 0.00in /  0mm 0 W/m2
21:02 32.3 °F /  0.2 °C 23.9 °F /  -4.5 °C 30.22in /  1023.2hPa Calm     71% 0.00in /  0mm 0 W/m2
21:08 32.1 °F /  0.1 °C 23.8 °F /  -4.6 °C 30.22in /  1023.2hPa Calm     71% 0.00in /  0mm 0 W/m2
21:14 31.8 °F /  -0.1 °C 23.8 °F /  -4.6 °C 30.22in /  1023.2hPa Calm     72% 0.00in /  0mm 0 W/m2
21:20 31.6 °F /  -0.2 °C 23.6 °F /  -4.7 °C 30.22in /  1023.2hPa Calm     72% 0.00in /  0mm 0 W/m2
21:26 31.4 °F /  -0.3 °C 23.4 °F /  -4.8 °C 30.22in /  1023.2hPa Calm     72% 0.00in /  0mm 0 W/m2
21:32 31.1 °F /  -0.5 °C 23.5 °F /  -4.7 °C 30.22in /  1023.2hPa Calm     73% 0.00in /  0mm 0 W/m2
21:38 31.0 °F /  -0.6 °C 23.7 °F /  -4.6 °C 30.22in /  1023.2hPa Calm     74% 0.00in /  0mm 0 W/m2
21:44 30.9 °F /  -0.6 °C 23.6 °F /  -4.7 °C 30.22in /  1023.2hPa Calm     74% 0.00in /  0mm 0 W/m2
21:50 30.9 °F /  -0.6 °C 23.6 °F /  -4.7 °C 30.23in /  1023.6hPa Calm     74% 0.00in /  0mm 0 W/m2
21:56 30.8 °F /  -0.7 °C 23.5 °F /  -4.7 °C 30.23in /  1023.6hPa Calm     74% 0.00in /  0mm 0 W/m2
22:02 30.7 °F /  -0.7 °C 23.4 °F /  -4.8 °C 30.23in /  1023.6hPa Calm     74% 0.00in /  0mm 0 W/m2
22:08 30.6 °F /  -0.8 °C 23.3 °F /  -4.8 °C 30.23in /  1023.6hPa Calm     74% 0.00in /  0mm 0 W/m2
22:14 30.9 °F /  -0.6 °C 23.9 °F /  -4.5 °C 30.23in /  1023.6hPa Calm     75% 0.00in /  0mm 0 W/m2
22:20 31.5 °F /  -0.3 °C 24.5 °F /  -4.2 °C 30.24in /  1023.9hPa West 1.0mph /  1.6km/h 2.0mph /  3.2km/h 75% 0.00in /  0mm 0 W/m2
22:26 32.1 °F /  0.1 °C 24.7 °F /  -4.1 °C 30.24in /  1023.9hPa West 1.0mph /  1.6km/h 2.0mph /  3.2km/h 74% 0.00in /  0mm 0 W/m2
22:32 32.6 °F /  0.3 °C 24.6 °F /  -4.1 °C 30.24in /  1023.9hPa West 1.0mph /  1.6km/h 1.0mph /  1.6km/h 72% 0.00in /  0mm 0 W/m2
22:38 33.1 °F /  0.6 °C 24.4 °F /  -4.2 °C 30.24in /  1023.9hPa West 1.0mph /  1.6km/h 1.0mph /  1.6km/h 70% 0.00in /  0mm 0 W/m2
22:44 33.4 °F /  0.8 °C 24.3 °F /  -4.3 °C 30.24in /  1023.9hPa West 1.0mph /  1.6km/h 1.0mph /  1.6km/h 69% 0.00in /  0mm 0 W/m2
22:50 33.8 °F /  1 °C 24.0 °F /  -4.4 °C 30.24in /  1023.9hPa West 1.0mph /  1.6km/h 1.0mph /  1.6km/h 67% 0.00in /  0mm 0 W/m2
22:52 34.0 °F /  1.1 °C 23.8 °F /  -4.6 °C 30.24in /  1023.9hPa West 1.0mph /  1.6km/h 1.0mph /  1.6km/h 66% 0.00in /  0mm 0 W/m2
22:58 34.1 °F /  1.2 °C 23.6 °F /  -4.7 °C 30.25in /  1024.3hPa West 1.0mph /  1.6km/h 3.0mph /  4.8km/h 65% 0.00in /  0mm 0 W/m2
23:04 34.1 °F /  1.2 °C 23.2 °F /  -4.9 °C 30.25in /  1024.3hPa Calm   1.0mph /  1.6km/h 64% 0.00in /  0mm 0 W/m2
23:10 33.9 °F /  1.1 °C 23.0 °F /  -5 °C 30.25in /  1024.3hPa Calm     64% 0.00in /  0mm 0 W/m2
23:16 33.9 °F /  1.1 °C 23.0 °F /  -5 °C 30.25in /  1024.3hPa Calm   2.0mph /  3.2km/h 64% 0.00in /  0mm 0 W/m2
23:22 33.8 °F /  1 °C 22.9 °F /  -5.1 °C 30.25in /  1024.3hPa Calm   1.0mph /  1.6km/h 64% 0.00in /  0mm 0 W/m2
23:28 33.7 °F /  0.9 °C 22.8 °F /  -5.1 °C 30.25in /  1024.3hPa Calm   1.0mph /  1.6km/h 64% 0.00in /  0mm 0 W/m2
23:34 33.7 °F /  0.9 °C 22.8 °F /  -5.1 °C 30.26in /  1024.6hPa West 1.0mph /  1.6km/h 2.0mph /  3.2km/h 64% 0.00in /  0mm 0 W/m2
23:40 33.8 °F /  1 °C 22.9 °F /  -5.1 °C 30.26in /  1024.6hPa West 1.0mph /  1.6km/h 3.0mph /  4.8km/h 64% 0.00in /  0mm 0 W/m2
23:46 33.8 °F /  1 °C 22.5 °F /  -5.3 °C 30.26in /  1024.6hPa West 1.0mph /  1.6km/h 3.0mph /  4.8km/h 63% 0.00in /  0mm 0 W/m2
23:52 33.7 °F /  0.9 °C 22.4 °F /  -5.3 °C 30.26in /  1024.6hPa West 1.0mph /  1.6km/h 1.0mph /  1.6km/h 63% 0.00in /  0mm 0 W/m2
23:58 33.7 °F /  0.9 °C 22.4 °F /  -5.3 °C 30.27in /  1024.9hPa Calm   1.0mph /  1.6km/h 63% 0.00in /  0mm 0 W/m2
Country Meadow, Clay, NY, USA
Compliments of Weather Underground - 2 mb